createdAt,value
2022-08-05T00:00:18.764Z,21.7
2022-08-05T00:02:18.549Z,21.7
2022-08-05T00:04:18.538Z,21.7
2022-08-05T00:06:28.974Z,21.7
2022-08-05T00:08:32.512Z,21.7
2022-08-05T00:10:18.460Z,21.6
2022-08-05T00:12:18.496Z,21.6
2022-08-05T00:14:18.484Z,21.6
2022-08-05T00:16:18.498Z,21.6
2022-08-05T00:18:21.679Z,21.5
2022-08-05T00:20:20.251Z,21.5
2022-08-05T00:22:19.859Z,21.4
2022-08-05T00:24:24.056Z,21.4
2022-08-05T00:26:18.525Z,21.4
2022-08-05T00:28:21.102Z,21.3
2022-08-05T00:30:18.510Z,21.3
2022-08-05T00:32:18.504Z,21.3
2022-08-05T00:34:54.968Z,21.2
2022-08-05T00:37:09.766Z,21.2
2022-08-05T00:38:18.511Z,21.2
2022-08-05T00:40:27.299Z,21.1
2022-08-05T00:42:31.709Z,21.1
2022-08-05T00:44:18.539Z,21.1
2022-08-05T00:46:18.510Z,21.1
2022-08-05T00:48:18.508Z,21.0
2022-08-05T00:50:18.513Z,20.9
2022-08-05T00:52:18.518Z,20.9
2022-08-05T00:54:18.533Z,20.9
2022-08-05T00:56:22.966Z,20.9
2022-08-05T00:58:19.158Z,20.9
2022-08-05T01:00:19.928Z,20.9
2022-08-05T01:02:18.558Z,20.8
2022-08-05T01:04:20.124Z,20.8
2022-08-05T01:06:18.555Z,20.8
2022-08-05T01:08:40.576Z,20.8
2022-08-05T01:10:18.545Z,20.7
2022-08-05T01:12:19.188Z,20.7
2022-08-05T01:14:18.535Z,20.6
2022-08-05T01:16:21.008Z,20.5
2022-08-05T01:18:18.561Z,20.5
2022-08-05T01:20:18.560Z,20.4
2022-08-05T01:22:23.830Z,20.4
2022-08-05T01:24:18.591Z,20.4
2022-08-05T01:26:18.564Z,20.4
2022-08-05T01:28:18.570Z,20.4
2022-08-05T01:30:18.670Z,20.4
2022-08-05T01:32:18.886Z,20.3
2022-08-05T01:34:18.615Z,20.3
2022-08-05T01:36:18.857Z,20.3
2022-08-05T01:38:26.811Z,20.3
2022-08-05T01:40:18.590Z,20.3
2022-08-05T01:42:18.592Z,20.3
2022-08-05T01:44:18.603Z,20.3
2022-08-05T01:46:41.410Z,20.3
2022-08-05T01:48:18.614Z,20.2
2022-08-05T01:50:18.598Z,20.2
2022-08-05T01:52:19.066Z,20.2
2022-08-05T01:54:18.612Z,20.1
2022-08-05T01:58:13.576Z,20.1
2022-08-05T01:58:18.613Z,20.1
2022-08-05T01:58:29.496Z,20.1
2022-08-05T02:00:18.612Z,20.1
2022-08-05T02:02:18.668Z,20.1
2022-08-05T02:04:18.612Z,20.1
2022-08-05T02:06:37.575Z,20.1
2022-08-05T02:08:19.987Z,20.1
2022-08-05T02:10:18.632Z,20.1
2022-08-05T02:12:18.612Z,20.1
2022-08-05T02:14:18.695Z,20.0
2022-08-05T02:16:18.624Z,20.0
2022-08-05T02:18:31.138Z,20.0
2022-08-05T02:20:20.782Z,19.9
2022-08-05T02:22:27.018Z,19.9
2022-08-05T02:24:18.596Z,19.9
2022-08-05T02:26:18.575Z,19.9
2022-08-05T02:28:29.316Z,19.9
2022-08-05T02:30:18.578Z,19.8
2022-08-05T02:32:23.848Z,19.8
2022-08-05T02:34:18.639Z,19.8
2022-08-05T02:36:18.596Z,19.8
2022-08-05T02:38:19.518Z,19.8
2022-08-05T02:40:18.595Z,19.7
2022-08-05T02:42:25.898Z,19.7
2022-08-05T02:44:18.594Z,19.7
2022-08-05T02:46:18.607Z,19.7
2022-08-05T02:48:18.578Z,19.7
2022-08-05T02:50:18.596Z,19.7
2022-08-05T02:52:29.609Z,19.7
2022-08-05T02:54:35.999Z,19.7
2022-08-05T02:56:19.019Z,19.7
2022-08-05T02:58:19.815Z,19.7
2022-08-05T03:00:18.608Z,19.7
2022-08-05T03:02:18.656Z,19.7
2022-08-05T03:04:18.640Z,19.7
2022-08-05T03:06:55.503Z,19.6
2022-08-05T03:08:19.595Z,19.6
2022-08-05T03:10:24.349Z,19.6
2022-08-05T03:12:18.660Z,19.6
2022-08-05T03:14:18.673Z,19.6
2022-08-05T03:16:18.708Z,19.5
2022-08-05T03:18:18.656Z,19.5
2022-08-05T03:20:18.690Z,19.6
2022-08-05T03:22:19.091Z,19.6
2022-08-05T03:24:29.280Z,19.5
2022-08-05T03:26:32.299Z,19.6
2022-08-05T03:28:19.726Z,19.6
2022-08-05T03:30:18.687Z,19.6
2022-08-05T03:32:19.327Z,19.4
2022-08-05T03:34:19.041Z,19.5
2022-08-05T03:36:30.293Z,19.4
2022-08-05T03:38:23.827Z,19.4
2022-08-05T03:40:31.484Z,19.4
2022-08-05T03:42:19.074Z,19.3
2022-08-05T03:44:19.709Z,19.3
2022-08-05T03:46:19.003Z,19.3
2022-08-05T03:48:21.919Z,19.2
2022-08-05T03:50:19.032Z,19.2
2022-08-05T03:52:50.353Z,19.2
2022-08-05T03:55:49.905Z,19.2
2022-08-05T03:55:53.788Z,19.2
2022-08-05T03:56:05.757Z,19.3
2022-08-05T03:56:30.476Z,19.3
2022-08-05T03:58:19.044Z,19.3
2022-08-05T04:00:18.998Z,19.3
2022-08-05T04:02:37.334Z,19.2
2022-08-05T04:04:21.201Z,19.2
2022-08-05T04:06:18.758Z,19.2
2022-08-05T04:08:36.398Z,19.1
2022-08-05T04:10:18.746Z,19.1
2022-08-05T04:12:24.618Z,19.1
2022-08-05T04:14:18.884Z,19.1
2022-08-05T04:16:25.048Z,19.1
2022-08-05T04:18:20.562Z,19.1
2022-08-05T04:20:18.742Z,19.0
2022-08-05T04:22:20.625Z,18.9
2022-08-05T04:24:22.676Z,18.9
2022-08-05T04:26:18.751Z,18.8
2022-08-05T04:28:18.749Z,18.8
2022-08-05T04:30:18.742Z,18.8
2022-08-05T04:32:20.145Z,18.8
2022-08-05T04:34:33.791Z,18.8
2022-08-05T04:36:46.488Z,18.8
2022-08-05T04:38:18.735Z,18.9
2022-08-05T04:40:19.619Z,18.9
2022-08-05T04:42:18.759Z,19.0
2022-08-05T04:44:21.553Z,19.1
2022-08-05T04:46:28.390Z,19.2
2022-08-05T04:48:27.524Z,19.3
2022-08-05T04:50:37.592Z,19.4
2022-08-05T04:52:18.814Z,19.6
2022-08-05T04:54:18.749Z,19.7
2022-08-05T04:56:35.237Z,19.8
2022-08-05T04:58:21.522Z,19.8
2022-08-05T05:00:18.758Z,19.9
2022-08-05T05:02:37.540Z,20.1
2022-08-05T05:04:18.839Z,20.2
2022-08-05T05:06:36.573Z,20.3
2022-08-05T05:08:30.034Z,20.5
2022-08-05T05:10:18.845Z,20.7
2022-08-05T05:12:18.859Z,20.9
2022-08-05T05:14:18.833Z,21.3
2022-08-05T05:16:19.789Z,21.8
2022-08-05T05:18:31.234Z,22.2
2022-08-05T05:20:18.832Z,22.6
2022-08-05T05:22:23.570Z,22.9
2022-08-05T05:24:18.850Z,23.3
2022-08-05T05:26:18.827Z,23.5
2022-08-05T05:28:18.845Z,23.7
2022-08-05T05:30:31.463Z,23.8
2022-08-05T05:32:18.853Z,23.9
2022-08-05T05:34:24.168Z,24.0
2022-08-05T05:36:18.858Z,24.2
2022-08-05T05:38:22.584Z,24.4
2022-08-05T05:40:18.851Z,24.7
2022-08-05T05:42:18.851Z,24.9
2022-08-05T05:44:36.898Z,25.0
2022-08-05T05:46:19.107Z,25.1
2022-08-05T05:48:18.877Z,25.1
2022-08-05T05:50:19.663Z,25.2
2022-08-05T05:52:29.853Z,25.2
2022-08-05T05:54:19.703Z,25.3
2022-08-05T05:56:26.102Z,25.4
2022-08-05T05:58:18.880Z,25.7
2022-08-05T06:00:18.900Z,25.9
2022-08-05T06:02:32.727Z,26.1
2022-08-05T06:04:18.928Z,26.3
2022-08-05T06:06:18.888Z,26.6
2022-08-05T06:08:31.507Z,26.9
2022-08-05T06:10:18.859Z,27.2
2022-08-05T06:12:19.586Z,27.2
2022-08-05T06:14:18.899Z,27.3
2022-08-05T06:16:30.075Z,27.4
2022-08-05T06:18:18.841Z,27.4
2022-08-05T06:20:21.708Z,27.6
2022-08-05T06:22:18.828Z,27.7
2022-08-05T06:24:18.845Z,27.8
2022-08-05T06:26:20.854Z,27.8
2022-08-05T06:28:21.124Z,27.9
2022-08-05T06:30:21.175Z,28.1
2022-08-05T06:32:25.112Z,28.2
2022-08-05T06:34:19.808Z,28.3
2022-08-05T06:36:18.863Z,28.4
2022-08-05T06:38:36.464Z,28.6
2022-08-05T06:40:21.221Z,28.7
2022-08-05T06:42:18.877Z,28.7
2022-08-05T06:44:18.856Z,28.7
2022-08-05T06:46:18.871Z,28.6
2022-08-05T06:48:53.727Z,28.7
2022-08-05T06:50:18.890Z,28.6
2022-08-05T06:52:36.863Z,28.6
2022-08-05T06:54:18.979Z,28.6
2022-08-05T06:56:26.442Z,28.6
2022-08-05T06:58:29.177Z,28.6
2022-08-05T07:00:22.233Z,28.7
2022-08-05T07:02:18.919Z,28.8
2022-08-05T07:04:19.099Z,28.8
2022-08-05T07:06:19.166Z,28.9
2022-08-05T07:08:18.933Z,29.0
2022-08-05T07:10:18.925Z,29.1
2022-08-05T07:12:18.943Z,29.1
2022-08-05T07:14:20.569Z,29.0
2022-08-05T07:17:56.484Z,29.0
2022-08-05T07:17:59.793Z,29.0
2022-08-05T07:18:28.930Z,29.1
2022-08-05T07:20:37.155Z,29.2
2022-08-05T07:22:18.949Z,29.4
2022-08-05T07:24:18.947Z,29.6
2022-08-05T07:26:22.685Z,29.6
2022-08-05T07:28:18.946Z,29.6
2022-08-05T07:30:23.827Z,29.7
2022-08-05T07:32:18.973Z,29.7
2022-08-05T07:34:21.228Z,29.7
2022-08-05T07:36:20.739Z,29.7
2022-08-05T07:38:26.470Z,29.6
2022-08-05T07:40:31.948Z,29.6
2022-08-05T07:42:19.069Z,29.4
2022-08-05T07:44:19.684Z,29.4
2022-08-05T07:46:24.466Z,29.4
2022-08-05T07:49:02.554Z,29.6
2022-08-05T07:50:21.681Z,29.6
2022-08-05T07:52:19.002Z,29.5
2022-08-05T07:54:19.096Z,29.3
2022-08-05T07:57:01.505Z,29.2
2022-08-05T07:57:50.581Z,29.2
2022-08-05T07:58:57.374Z,29.2
2022-08-05T08:00:18.983Z,29.1
2022-08-05T08:02:18.995Z,29.1
2022-08-05T08:04:23.015Z,28.9
2022-08-05T08:06:18.995Z,28.8
2022-08-05T08:08:19.962Z,28.9
2022-08-05T08:10:20.570Z,28.7
2022-08-05T08:12:33.348Z,28.7
2022-08-05T08:14:19.236Z,28.7
2022-08-05T08:16:34.904Z,28.7
2022-08-05T08:18:20.901Z,28.7
2022-08-05T08:20:42.835Z,28.4
2022-08-05T08:22:19.014Z,28.4
2022-08-05T08:24:19.026Z,28.3
2022-08-05T08:26:26.789Z,28.2
2022-08-05T08:28:35.509Z,27.9
2022-08-05T08:30:32.205Z,27.7
2022-08-05T08:32:19.081Z,27.7
2022-08-05T08:34:19.026Z,27.6
2022-08-05T08:36:37.411Z,27.7
2022-08-05T08:38:19.038Z,27.8
2022-08-05T08:40:19.139Z,27.9
2022-08-05T08:42:50.598Z,28.0
2022-08-05T08:45:19.194Z,28.0
2022-08-05T08:45:26.954Z,28.0
2022-08-05T08:46:19.025Z,28.0
2022-08-05T08:48:36.144Z,28.0
2022-08-05T08:50:32.994Z,28.1
2022-08-05T08:52:19.036Z,28.2
2022-08-05T08:54:19.057Z,28.2
2022-08-05T08:56:19.061Z,28.2
2022-08-05T08:58:19.068Z,28.2
2022-08-05T09:00:19.307Z,28.1
2022-08-05T09:02:19.186Z,28.1
2022-08-05T09:04:19.020Z,27.9
2022-08-05T09:06:21.437Z,27.9
2022-08-05T09:08:19.037Z,27.9
2022-08-05T09:10:19.036Z,27.9
2022-08-05T09:12:20.539Z,28.1
2022-08-05T09:14:59.201Z,28.3
2022-08-05T09:16:19.052Z,28.5
2022-08-05T09:18:19.068Z,28.4
2022-08-05T09:20:36.719Z,28.2
2022-08-05T09:22:25.001Z,28.1
2022-08-05T09:24:19.054Z,28.3
2022-08-05T09:26:20.745Z,28.6
2022-08-05T09:28:21.224Z,28.7
2022-08-05T09:30:19.167Z,28.5
2022-08-05T09:32:45.803Z,28.4
2022-08-05T09:34:19.098Z,28.4
2022-08-05T09:36:19.078Z,28.4
2022-08-05T09:38:19.058Z,28.7
2022-08-05T09:40:19.134Z,28.8
2022-08-05T09:42:23.171Z,29.1
2022-08-05T09:44:19.083Z,29.3
2022-08-05T09:46:19.075Z,29.3
2022-08-05T09:48:19.094Z,29.4
2022-08-05T09:50:37.603Z,29.4
2022-08-05T09:52:19.142Z,29.4
2022-08-05T09:54:21.399Z,29.5
2022-08-05T09:56:19.080Z,29.7
2022-08-05T09:58:19.113Z,29.8
2022-08-05T10:00:19.117Z,29.8
2022-08-05T10:02:20.512Z,29.8
2022-08-05T10:04:19.122Z,29.8
2022-08-05T10:06:19.111Z,29.9
2022-08-05T10:08:37.666Z,30.3
2022-08-05T10:10:28.022Z,30.3
2022-08-05T10:12:33.580Z,30.2
2022-08-05T10:14:19.138Z,30.1
2022-08-05T10:16:19.115Z,30.3
2022-08-05T10:18:19.133Z,30.5
2022-08-05T10:20:20.019Z,30.6
2022-08-05T10:22:30.076Z,30.4
2022-08-05T10:24:19.124Z,30.3
2022-08-05T10:26:19.137Z,30.3
2022-08-05T10:28:30.319Z,30.5
2022-08-05T10:31:20.376Z,30.6
2022-08-05T10:32:51.845Z,30.6
2022-08-05T10:32:51.959Z,30.6
2022-08-05T10:33:02.956Z,30.7
2022-08-05T10:34:19.156Z,30.9
2022-08-05T10:36:23.650Z,30.8
2022-08-05T10:38:19.180Z,30.9
2022-08-05T10:40:19.541Z,31.1
2022-08-05T10:42:22.909Z,31.1
2022-08-05T10:44:19.171Z,31.0
2022-08-05T10:46:19.166Z,30.9
2022-08-05T10:48:30.990Z,31.1
2022-08-05T10:50:31.777Z,31.2
2022-08-05T10:52:19.175Z,31.1
2022-08-05T10:54:28.629Z,30.9
2022-08-05T10:56:21.185Z,30.9
2022-08-05T10:58:19.172Z,30.9
2022-08-05T11:00:20.683Z,30.8
2022-08-05T11:02:38.209Z,30.8
2022-08-05T11:04:21.336Z,30.9
2022-08-05T11:06:19.161Z,30.8
2022-08-05T11:08:37.386Z,30.9
2022-08-05T11:10:19.182Z,30.9
2022-08-05T11:12:19.178Z,30.8
2022-08-05T11:14:19.191Z,30.8
2022-08-05T11:16:19.200Z,30.8
2022-08-05T11:18:19.193Z,31.1
2022-08-05T11:20:19.326Z,31.2
2022-08-05T11:22:19.189Z,31.2
2022-08-05T11:24:29.748Z,31.3
2022-08-05T11:26:29.223Z,31.5
2022-08-05T11:28:19.214Z,31.6
2022-08-05T11:30:19.214Z,31.6
2022-08-05T11:32:19.202Z,31.8
2022-08-05T11:34:22.752Z,31.8
2022-08-05T11:36:34.678Z,31.7
2022-08-05T11:38:28.066Z,31.6
2022-08-05T11:40:18.394Z,31.5
2022-08-05T11:42:18.330Z,31.6
2022-08-05T11:44:40.859Z,31.6
2022-08-05T11:46:32.332Z,31.7
2022-08-05T11:48:16.714Z,32.0
2022-08-05T11:50:16.734Z,32.2
2022-08-05T11:52:16.726Z,32.2
2022-08-05T11:54:16.733Z,32.2
2022-08-05T11:56:16.734Z,31.8
2022-08-05T11:58:17.431Z,31.4
2022-08-05T12:00:16.732Z,31.3
2022-08-05T12:02:29.781Z,31.3
2022-08-05T12:04:16.749Z,31.6
2022-08-05T12:06:16.742Z,31.8
2022-08-05T12:08:18.205Z,31.9
2022-08-05T12:10:16.756Z,31.9
2022-08-05T12:12:16.748Z,32.0
2022-08-05T12:14:16.941Z,32.0
2022-08-05T12:16:16.785Z,32.1
2022-08-05T12:18:17.076Z,32.2
2022-08-05T12:20:27.272Z,32.3
2022-08-05T12:22:17.985Z,32.2
2022-08-05T12:24:17.342Z,31.9
2022-08-05T12:26:16.764Z,32.1
2022-08-05T12:28:16.765Z,32.2
2022-08-05T12:30:16.749Z,32.3
2022-08-05T12:32:16.773Z,32.3
2022-08-05T12:34:21.454Z,32.3
2022-08-05T12:36:16.833Z,32.1
2022-08-05T12:38:16.774Z,32.0
2022-08-05T12:40:20.885Z,32.0
2022-08-05T12:42:16.776Z,32.2
2022-08-05T12:44:21.694Z,32.1
2022-08-05T12:46:16.829Z,31.9
2022-08-05T12:48:27.045Z,31.9
2022-08-05T12:50:16.769Z,32.1
2022-08-05T12:52:23.860Z,32.1
2022-08-05T12:54:23.638Z,32.1
2022-08-05T12:56:34.483Z,32.2
2022-08-05T12:58:49.557Z,32.3
2022-08-05T13:02:02.521Z,32.5
2022-08-05T13:02:02.929Z,32.5
2022-08-05T13:02:17.065Z,32.6
2022-08-05T13:04:21.088Z,32.6
2022-08-05T13:06:17.010Z,32.4
2022-08-05T13:08:17.162Z,32.3
2022-08-05T13:10:20.284Z,32.2
2022-08-05T13:12:17.028Z,32.1
2022-08-05T13:14:19.778Z,32.2
2022-08-05T13:16:17.127Z,32.2
2022-08-05T13:18:19.751Z,32.2
2022-08-05T13:20:21.676Z,32.3
2022-08-05T13:22:28.058Z,32.4
2022-08-05T13:24:36.605Z,32.4
2022-08-05T13:26:16.816Z,32.6
2022-08-05T13:28:16.818Z,32.5
2022-08-05T13:30:35.144Z,32.6
2022-08-05T13:32:21.799Z,32.6
2022-08-05T13:34:22.767Z,32.8
2022-08-05T13:36:16.892Z,32.9
2022-08-05T13:38:28.471Z,32.8
2022-08-05T13:40:36.828Z,32.6
2022-08-05T13:42:16.827Z,32.6
2022-08-05T13:44:16.837Z,32.8
2022-08-05T13:46:30.365Z,32.9
2022-08-05T13:48:58.155Z,32.8
2022-08-05T13:50:17.124Z,32.8
2022-08-05T13:52:16.858Z,32.9
2022-08-05T13:54:16.941Z,33.2
2022-08-05T13:56:18.993Z,33.3
2022-08-05T13:58:30.435Z,33.2
2022-08-05T14:00:17.443Z,32.9
2022-08-05T14:02:19.958Z,32.9
2022-08-05T14:04:16.854Z,32.8
2022-08-05T14:06:26.721Z,32.8
2022-08-05T14:08:20.936Z,32.7
2022-08-05T14:10:19.176Z,32.4
2022-08-05T14:12:17.750Z,32.2
2022-08-05T14:14:23.300Z,32.2
2022-08-05T14:16:19.216Z,32.3
2022-08-05T14:18:18.273Z,32.3
2022-08-05T14:20:17.418Z,32.2
2022-08-05T14:22:16.900Z,32.3
2022-08-05T14:24:19.495Z,32.3
2022-08-05T14:26:35.840Z,32.2
2022-08-05T14:28:27.046Z,32.1
2022-08-05T14:30:20.149Z,32.1
2022-08-05T14:32:27.090Z,32.1
2022-08-05T14:34:16.947Z,32.1
2022-08-05T14:36:20.654Z,32.0
2022-08-05T14:38:32.788Z,31.8
2022-08-05T14:40:17.217Z,31.6
2022-08-05T14:42:21.011Z,31.4
2022-08-05T14:44:20.646Z,31.4
2022-08-05T14:46:16.859Z,31.3
2022-08-05T14:48:33.504Z,31.3
2022-08-05T14:50:19.161Z,31.4
2022-08-05T14:52:36.366Z,31.6
2022-08-05T14:54:30.058Z,31.6
2022-08-05T14:56:22.688Z,31.5
2022-08-05T14:58:16.910Z,31.4
2022-08-05T15:00:16.933Z,31.2
2022-08-05T15:02:16.936Z,31.0
2022-08-05T15:04:16.916Z,30.7
2022-08-05T15:06:16.925Z,30.6
2022-08-05T15:08:58.055Z,30.4
2022-08-05T15:10:16.887Z,30.4
2022-08-05T15:12:17.298Z,30.4
2022-08-05T15:14:33.191Z,30.4
2022-08-05T15:16:17.288Z,30.3
2022-08-05T15:18:17.386Z,30.2
2022-08-05T15:20:19.330Z,30.0
2022-08-05T15:22:16.982Z,29.8
2022-08-05T15:24:17.020Z,29.7
2022-08-05T15:26:16.970Z,29.6
2022-08-05T15:28:16.936Z,29.5
2022-08-05T15:30:16.951Z,29.4
2022-08-05T15:32:17.222Z,29.3
2022-08-05T15:34:31.222Z,29.2
2022-08-05T15:36:24.115Z,29.2
2022-08-05T15:38:36.169Z,29.2
2022-08-05T15:40:59.594Z,29.2
2022-08-05T15:41:24.406Z,29.2
2022-08-05T15:42:28.760Z,29.2
2022-08-05T15:44:17.463Z,29.2
2022-08-05T15:46:16.922Z,29.3
2022-08-05T15:48:16.963Z,29.4
2022-08-05T15:50:16.957Z,29.4
2022-08-05T15:52:51.633Z,29.3
2022-08-05T15:54:16.965Z,29.3
2022-08-05T15:56:16.994Z,29.3
2022-08-05T15:58:17.153Z,29.2
2022-08-05T16:00:17.039Z,29.2
2022-08-05T16:02:19.655Z,29.2
2022-08-05T16:04:18.104Z,29.3
2022-08-05T16:06:19.828Z,29.3
2022-08-05T16:08:17.090Z,29.3
2022-08-05T16:10:17.006Z,29.3
2022-08-05T16:12:17.039Z,29.4
2022-08-05T16:14:17.765Z,29.4
2022-08-05T16:16:21.217Z,29.6
2022-08-05T16:18:17.000Z,29.7
2022-08-05T16:20:17.008Z,29.8
2022-08-05T16:22:17.108Z,29.8
2022-08-05T16:24:40.381Z,29.8
2022-08-05T16:26:17.044Z,29.9
2022-08-05T16:28:17.193Z,29.8
2022-08-05T16:30:25.478Z,29.9
2022-08-05T16:32:17.007Z,29.8
2022-08-05T16:34:17.021Z,29.7
2022-08-05T16:36:20.508Z,29.5
2022-08-05T16:38:25.356Z,29.3
2022-08-05T16:40:29.166Z,29.2
2022-08-05T16:42:21.554Z,29.1
2022-08-05T16:44:17.134Z,28.9
2022-08-05T16:46:24.603Z,28.9
2022-08-05T16:48:26.187Z,28.8
2022-08-05T16:50:17.070Z,28.7
2022-08-05T16:52:17.173Z,28.7
2022-08-05T16:54:22.447Z,28.6
2022-08-05T16:56:17.038Z,28.6
2022-08-05T16:58:19.904Z,28.6
2022-08-05T17:00:26.291Z,28.6
2022-08-05T17:02:17.445Z,28.6
2022-08-05T17:04:18.772Z,28.5
2022-08-05T17:06:17.066Z,28.4
2022-08-05T17:08:17.021Z,28.4
2022-08-05T17:10:17.063Z,28.5
2022-08-05T17:12:17.118Z,28.4
2022-08-05T17:14:34.084Z,28.3
2022-08-05T17:16:33.128Z,28.3
2022-08-05T17:18:17.070Z,28.2
2022-08-05T17:20:17.069Z,28.2
2022-08-05T17:22:24.697Z,28.1
2022-08-05T17:24:30.180Z,27.9
2022-08-05T17:26:17.070Z,28.0
2022-08-05T17:28:17.113Z,28.0
2022-08-05T17:30:19.160Z,28.1
2022-08-05T17:32:17.768Z,28.1
2022-08-05T17:34:17.800Z,28.1
2022-08-05T17:36:32.729Z,28.2
2022-08-05T17:38:17.465Z,28.2
2022-08-05T17:40:17.215Z,28.2
2022-08-05T17:42:22.763Z,28.3
2022-08-05T17:44:17.097Z,28.4
2022-08-05T17:46:17.150Z,28.5
2022-08-05T17:48:17.104Z,28.5
2022-08-05T17:50:17.076Z,28.5
2022-08-05T17:52:17.217Z,28.4
2022-08-05T17:54:17.145Z,28.2
2022-08-05T17:56:17.077Z,28.1
2022-08-05T17:58:17.099Z,27.7
2022-08-05T18:00:17.100Z,27.4
2022-08-05T18:02:17.099Z,27.1
2022-08-05T18:04:18.600Z,26.9
2022-08-05T18:06:17.263Z,26.7
2022-08-05T18:08:17.130Z,26.6
2022-08-05T18:10:20.718Z,26.6
2022-08-05T18:12:17.180Z,26.4
2022-08-05T18:14:20.577Z,26.3
2022-08-05T18:16:20.257Z,26.3
2022-08-05T18:18:17.131Z,26.2
2022-08-05T18:20:17.174Z,26.1
2022-08-05T18:22:18.036Z,25.9
2022-08-05T18:24:17.105Z,25.8
2022-08-05T18:26:18.173Z,25.7
2022-08-05T18:28:17.324Z,25.6
2022-08-05T18:30:17.168Z,25.4
2022-08-05T18:32:17.068Z,25.3
2022-08-05T18:34:17.089Z,25.1
2022-08-05T18:36:17.188Z,24.9
2022-08-05T18:38:19.477Z,24.8
2022-08-05T18:40:34.046Z,24.7
2022-08-05T18:41:59.689Z,24.7
2022-08-05T18:42:17.186Z,24.6
2022-08-05T18:44:33.255Z,24.4
2022-08-05T18:46:19.822Z,24.4
2022-08-05T18:48:30.665Z,24.3
2022-08-05T18:50:17.104Z,24.1
2022-08-05T18:52:17.112Z,24.0
2022-08-05T18:54:17.121Z,23.8
2022-08-05T18:56:17.110Z,23.3
2022-08-05T18:58:17.120Z,23.2
2022-08-05T19:00:20.470Z,23.1
2022-08-05T19:02:28.085Z,23.2
2022-08-05T19:04:23.988Z,23.4
2022-08-05T19:06:21.730Z,23.4
2022-08-05T19:08:17.174Z,23.3
2022-08-05T19:10:17.319Z,23.3
2022-08-05T19:12:17.275Z,23.2
2022-08-05T19:14:38.079Z,23.1
2022-08-05T19:16:25.187Z,23.1
2022-08-05T19:18:20.739Z,23.0
2022-08-05T19:20:17.207Z,22.9
2022-08-05T19:22:17.726Z,22.9
2022-08-05T19:24:17.213Z,22.8
2022-08-05T19:26:17.196Z,22.8
2022-08-05T19:28:17.273Z,22.7
2022-08-05T19:30:17.223Z,22.6
2022-08-05T19:32:17.175Z,22.6
2022-08-05T19:34:18.656Z,22.5
2022-08-05T19:36:17.187Z,22.4
2022-08-05T19:38:20.333Z,22.4
2022-08-05T19:40:17.328Z,22.3
2022-08-05T19:42:17.214Z,22.2
2022-08-05T19:44:17.225Z,22.2
2022-08-05T19:46:29.522Z,22.1
2022-08-05T19:48:17.240Z,22.0
2022-08-05T19:50:17.272Z,21.9
2022-08-05T19:52:31.003Z,21.8
2022-08-05T19:54:25.450Z,21.8
2022-08-05T19:56:24.303Z,21.7
2022-08-05T19:58:28.220Z,21.6
2022-08-05T20:00:17.223Z,21.4
2022-08-05T20:02:17.649Z,21.4
2022-08-05T20:04:17.273Z,21.3
2022-08-05T20:06:28.762Z,21.2
2022-08-05T20:08:17.452Z,21.2
2022-08-05T20:10:17.332Z,21.1
2022-08-05T20:12:17.340Z,21.1
2022-08-05T20:14:26.710Z,21.0
2022-08-05T20:16:19.512Z,20.9
2022-08-05T20:18:33.779Z,20.9
2022-08-05T20:20:17.584Z,20.8
2022-08-05T20:22:17.443Z,20.8
2022-08-05T20:24:17.264Z,20.7
2022-08-05T20:26:17.923Z,20.7
2022-08-05T20:28:17.535Z,20.7
2022-08-05T20:30:19.615Z,20.7
2022-08-05T20:32:17.514Z,20.6
2022-08-05T20:34:17.279Z,20.6
2022-08-05T20:36:17.960Z,20.5
2022-08-05T20:38:27.357Z,20.4
2022-08-05T20:40:18.019Z,20.4
2022-08-05T20:42:21.903Z,20.3
2022-08-05T20:44:29.692Z,20.3
2022-08-05T20:46:18.431Z,20.3
2022-08-05T20:48:17.452Z,20.3
2022-08-05T20:50:20.221Z,20.2
2022-08-05T20:52:17.600Z,20.2
2022-08-05T20:54:17.556Z,20.2
2022-08-05T20:56:17.287Z,20.1
2022-08-05T20:58:17.450Z,20.1
2022-08-05T21:00:40.743Z,20.1
2022-08-05T21:04:17.307Z,20.1
2022-08-05T21:06:27.626Z,20.1
2022-08-05T21:08:17.269Z,20.1
2022-08-05T21:10:17.274Z,20.1
2022-08-05T21:12:17.272Z,20.1
2022-08-05T21:14:17.331Z,20.1
2022-08-05T21:16:17.238Z,20.1
2022-08-05T21:18:17.266Z,20.1
2022-08-05T21:20:32.680Z,20.1
2022-08-05T21:22:18.707Z,20.1
2022-08-05T21:24:17.279Z,20.0
2022-08-05T21:26:17.316Z,19.9
2022-08-05T21:28:18.607Z,19.9
2022-08-05T21:30:17.835Z,19.9
2022-08-05T21:32:19.846Z,19.9
2022-08-05T21:34:17.266Z,19.9
2022-08-05T21:36:19.253Z,19.8
2022-08-05T21:38:17.389Z,19.8
2022-08-05T21:40:17.436Z,19.7
2022-08-05T21:42:31.146Z,19.7
2022-08-05T21:44:17.423Z,19.7
2022-08-05T21:46:17.394Z,19.6
2022-08-05T21:48:17.374Z,19.6
2022-08-05T21:50:17.363Z,19.5
2022-08-05T21:52:28.184Z,19.5
2022-08-05T21:54:17.305Z,19.4
2022-08-05T21:56:17.428Z,19.3
2022-08-05T21:58:17.287Z,19.3
2022-08-05T22:00:17.288Z,19.2
2022-08-05T22:02:17.337Z,19.2
2022-08-05T22:04:17.307Z,19.1
2022-08-05T22:06:22.953Z,19.1
2022-08-05T22:08:22.559Z,19.0
2022-08-05T22:10:17.315Z,18.9
2022-08-05T22:12:17.317Z,18.9
2022-08-05T22:14:37.249Z,18.9
2022-08-05T22:16:40.503Z,18.8
2022-08-05T22:18:18.853Z,18.8
2022-08-05T22:20:17.669Z,18.7
2022-08-05T22:22:17.316Z,18.7
2022-08-05T22:24:40.486Z,18.7
2022-08-05T22:26:17.292Z,18.7
2022-08-05T22:28:18.252Z,18.6
2022-08-05T22:30:17.342Z,18.6
2022-08-05T22:32:17.770Z,18.6
2022-08-05T22:34:25.725Z,18.6
2022-08-05T22:36:17.317Z,18.5
2022-08-05T22:38:17.340Z,18.5
2022-08-05T22:40:20.400Z,18.4
2022-08-05T22:42:25.410Z,18.4
2022-08-05T22:44:19.129Z,18.3
2022-08-05T22:46:23.626Z,18.3
2022-08-05T22:48:17.344Z,18.2
2022-08-05T22:50:23.483Z,18.1
2022-08-05T22:52:22.780Z,18.1
2022-08-05T22:54:17.351Z,18.0
2022-08-05T22:56:17.411Z,18.0
2022-08-05T22:58:17.345Z,18.0
2022-08-05T23:00:18.341Z,17.9
2022-08-05T23:02:17.557Z,17.8
2022-08-05T23:04:17.367Z,17.7
2022-08-05T23:06:19.048Z,17.6
2022-08-05T23:08:17.383Z,17.3
2022-08-05T23:10:19.850Z,17.2
2022-08-05T23:12:17.496Z,17.1
2022-08-05T23:14:17.379Z,16.9
2022-08-05T23:16:26.182Z,16.8
2022-08-05T23:18:17.393Z,16.7
2022-08-05T23:20:17.934Z,16.7
2022-08-05T23:22:17.453Z,16.6
2022-08-05T23:24:17.398Z,16.5
2022-08-05T23:26:17.395Z,16.5
2022-08-05T23:28:17.499Z,16.4
2022-08-05T23:30:17.388Z,16.4
2022-08-05T23:32:17.568Z,16.4
2022-08-05T23:34:24.482Z,16.4
2022-08-05T23:36:17.398Z,16.4
2022-08-05T23:38:17.391Z,16.4
2022-08-05T23:40:17.434Z,16.3
2022-08-05T23:42:29.082Z,16.3
2022-08-05T23:44:17.423Z,16.3
2022-08-05T23:46:20.185Z,16.3
2022-08-05T23:48:17.405Z,16.3
2022-08-05T23:50:20.284Z,16.4
2022-08-05T23:52:17.464Z,16.4
2022-08-05T23:54:17.416Z,16.4
2022-08-05T23:56:20.025Z,16.4
2022-08-05T23:58:31.614Z,16.4
